MSC Regina — 3FGF9 — position and weather

sailwx.info

Track history (hours):
 
Tides and Currents Weather Stations Pressure Air Temp Water Temp Dewpoint Dewpoint Depression Visibility Wind Speed Wind Dir Waves Ship Positions

MSC Regina

Last reported at 2016-Jun-28 07:33 UTC. Time now 2016-Jun-28 08:01 UTC.
Position N 37°56' W 008°51'.

Length 259 m; draft 10.3 m.

Type: Ship (hazmat cat A). MMSI: 357331980.

Date/timePositionNaut miles runAvg speedWind from/ knotsBaromVisibWave heightAir tempDewpointWater temp
2016-Jun-28 07:33N 37°56' W 008°51'7 6.6
2016-Jun-28 06:33N 37°49' W 008°52'3417.2
2016-Jun-28 04:33N 37°18' W 009°11'1717.0
2016-Jun-28 03:33N 37°03' W 009°20'1514.9
2016-Jun-28 02:33N 36°48' W 009°14'1915.6
2016-Jun-28 01:22N 36°40' W 008°54'17217.5
2016-Jun-27 15:33N 36°00' W 005°26'22417.9
2016-Jun-27 03:04N 37°14' W 001°02'1219.0
2016-Jun-27 02:25N 37°23' W 000°50'1719.4
2016-Jun-27 01:33N 37°34' W 000°35'1918.9
2016-Jun-27 00:34N 37°49' W 000°21'1918.7
2016-Jun-26 23:33N 38°05' W 000°08'2018.9
2016-Jun-26 22:27N 38°22' E 000°06'7418.6
2016-Jun-26 18:27N 39°21' E 001°05'1718.4
2016-Jun-26 17:33N 39°31' E 001°22'1818.3
2016-Jun-26 16:33N 39°42' E 001°41'1818.4
2016-Jun-26 15:33N 39°54' E 001°59'1918.8
2016-Jun-26 14:33N 40°05' E 002°19'1918.5
2016-Jun-26 13:33N 40°16' E 002°38'1818.2
2016-Jun-26 12:33N 40°28' E 002°57'1918.7
2016-Jun-26 11:33N 40°39' E 003°16'1918.9
2016-Jun-26 10:33N 40°51' E 003°36'17018.9
2016-Jun-26 01:33N 42°34' E 006°36'2518.4
2016-Jun-26 00:12N 42°49' E 007°03'1218.7
2016-Jun-25 23:33N 42°57' E 007°16'1919.1
2016-Jun-25 22:33N 43°11' E 007°32'1919.1
2016-Jun-25 21:33N 43°27' E 007°48'1919.4
2016-Jun-25 20:33N 43°43' E 008°03'2519.7
2016-Jun-25 19:17N 44°03' E 008°23'1519.9
2016-Jun-25 18:33N 44°15' E 008°35'1311.8
2016-Jun-25 17:26N 44°25' E 008°47'0 0.0
2016-Jun-25 16:32N 44°25' E 008°47'0 0.0
2016-Jun-25 15:32N 44°25' E 008°47'0 0.0
2016-Jun-25 14:32N 44°25' E 008°47'0 0.0
2016-Jun-25 13:32N 44°25' E 008°47'0 0.0
2016-Jun-25 12:32N 44°25' E 008°47'0 0.0
2016-Jun-25 11:32N 44°25' E 008°47'0 0.0
2016-Jun-25 10:32N 44°25' E 008°47'0 0.0
2016-Jun-25 09:32N 44°25' E 008°47'0 0.0
2016-Jun-25 08:32N 44°25' E 008°47'0 0.0
2016-Jun-25 07:32N 44°25' E 008°47'0 0.0
2016-Jun-25 06:32N 44°25' E 008°47'2 2.2
2016-Jun-25 05:33N 44°24' E 008°45'2 2.3
2016-Jun-25 04:33N 44°22' E 008°43'8 8.4
2016-Jun-25 03:33N 44°15' E 008°50'9 8.8
2016-Jun-25 02:33N 44°08' E 008°58'9 8.7
2016-Jun-25 01:33N 44°02' E 009°06'9 8.9
2016-Jun-25 00:33N 43°56' E 009°15'9 8.9
2016-Jun-24 23:33N 43°50' E 009°24'9 8.7
2016-Jun-24 22:33N 43°43' E 009°32'9 8.6
2016-Jun-24 21:33N 43°37' E 009°40'9 8.9
2016-Jun-24 20:33N 43°31' E 009°50'9 8.6
2016-Jun-24 19:33N 43°30' E 010°02'9 8.7
2016-Jun-24 18:33N 43°31' E 010°14'5 4.5
2016-Jun-24 17:28N 43°35' E 010°18'0 0.0
2016-Jun-24 16:31N 43°35' E 010°18'0 0.0
2016-Jun-24 15:30N 43°35' E 010°18'0 0.0
2016-Jun-24 14:34N 43°35' E 010°18'0 0.0
2016-Jun-24 13:31N 43°35' E 010°18'0 0.0
2016-Jun-24 12:34N 43°35' E 010°18'0 0.0
2016-Jun-24 11:30N 43°35' E 010°18'0 0.0
2016-Jun-24 10:34N 43°35' E 010°18'0 0.0
2016-Jun-24 09:33N 43°35' E 010°18'0 0.0
2016-Jun-24 08:28N 43°35' E 010°18'0 0.0
2016-Jun-24 07:33N 43°35' E 010°18'2 0.7
2016-Jun-24 04:33N 43°33' E 010°17'8 8.0
2016-Jun-24 03:33N 43°27' E 010°10'1514.7
2016-Jun-24 02:34N 43°17' E 009°55'1616.5
2016-Jun-24 01:34N 43°05' E 009°39'1515.2
2016-Jun-24 00:33N 42°50' E 009°42'1716.0
2016-Jun-23 23:27N 42°33' E 009°49'1515.8
2016-Jun-23 22:29N 42°19' E 009°55'1515.9
2016-Jun-23 21:33N 42°09' E 010°09'5617.1
2016-Jun-23 18:17N 41°31' E 011°05'17617.6
2016-Jun-23 08:16N 39°33' E 013°58'6018.6
2016-Jun-23 05:03N 38°54' E 014°56'918.4
2016-Jun-23 04:33N 38°48' E 015°05'1918.4
2016-Jun-23 03:33N 38°38' E 015°25'1918.8
2016-Jun-23 02:33N 38°29' E 015°46'7 6.3
2016-Jun-23 01:31N 38°27' E 015°54'0 0.0
2016-Jun-23 00:31N 38°27' E 015°54'0 0.0
2016-Jun-22 23:31N 38°27' E 015°54'0 0.0
2016-Jun-22 22:34N 38°27' E 015°54'0 0.0
2016-Jun-22 21:34N 38°27' E 015°54'0 0.0
2016-Jun-22 20:31N 38°27' E 015°54'0 0.0
2016-Jun-22 19:31N 38°27' E 015°54'0 0.0
2016-Jun-22 18:30N 38°27' E 015°54'0 0.0
2016-Jun-22 17:31N 38°27' E 015°54'0 0.0
2016-Jun-22 16:19N 38°27' E 015°54'0 0.0
2016-Jun-22 15:31N 38°27' E 015°54'0 0.0
2016-Jun-22 14:31N 38°27' E 015°54'0 0.0
2016-Jun-22 13:31N 38°27' E 015°54'0 0.0
2016-Jun-22 12:33N 38°27' E 015°54'0 0.0
2016-Jun-22 11:31N 38°27' E 015°54'0 0.0
2016-Jun-22 10:25N 38°27' E 015°54'0 0.0
2016-Jun-22 09:30N 38°27' E 015°54'0 0.0
2016-Jun-22 08:33N 38°27' E 015°54'0 0.0
2016-Jun-22 07:34N 38°27' E 015°54'0 0.0
2016-Jun-22 06:33N 38°27' E 015°54'0 0.0
2016-Jun-22 05:34N 38°27' E 015°54'0 0.0
2016-Jun-22 04:33N 38°27' E 015°54'0 0.0
2016-Jun-22 03:33N 38°27' E 015°54'0 0.0
2016-Jun-22 02:33N 38°27' E 015°54'0 0.0
2016-Jun-22 01:33N 38°27' E 015°54'0 0.0
2016-Jun-22 00:28N 38°27' E 015°54'0 0.0
2016-Jun-21 23:27N 38°27' E 015°54'0 0.0
2016-Jun-21 22:34N 38°27' E 015°54'0 0.0
2016-Jun-21 21:33N 38°27' E 015°54'7 7.1
2016-Jun-21 20:33N 38°26' E 015°45'1717.0
2016-Jun-21 19:33N 38°21' E 015°25'1717.4
2016-Jun-21 18:33N 38°17' E 015°03'1717.0
2016-Jun-21 17:33N 38°17' E 014°42'2016.6
2016-Jun-21 16:22N 38°17' E 014°17'1816.3
2016-Jun-21 15:16N 38°17' E 013°54'1115.5
2016-Jun-21 14:33N 38°18' E 013°39'1515.5
2016-Jun-21 13:33N 38°18' E 013°20'1515.2
2016-Jun-21 12:33N 38°17' E 013°00'2015.6
2016-Jun-21 11:16N 38°14' E 012°35'60315.6
2016-Jun-19 20:33N 36°45' E 000°04'1716.4
2016-Jun-19 19:32N 36°42' W 000°17'1616.5
2016-Jun-19 18:33N 36°38' W 000°36'1615.8
2016-Jun-19 17:33N 36°35' W 000°55'1716.0
2016-Jun-19 16:31N 36°31' W 001°16'1616.3
2016-Jun-19 15:33N 36°28' W 001°35'3215.9
2016-Jun-19 13:32N 36°21' W 002°14'1915.3
2016-Jun-19 12:16N 36°18' W 002°37'12715.9
2016-Jun-19 04:19N 36°00' W 005°13'1316.8
2016-Jun-19 03:33N 35°57' W 005°28'1615.8
2016-Jun-19 02:33N 35°54' W 005°47'12915.7
2016-Jun-18 18:20N 36°19' W 008°24'4815.7
2016-Jun-18 15:16N 36°32' W 009°22'5313.2
2016-Jun-18 11:15N 37°25' W 009°16'1116.0
2016-Jun-18 10:33N 37°34' W 009°08'1615.7
2016-Jun-18 09:33N 37°46' W 008°56'1010.6
2016-Jun-18 08:34N 37°56' W 008°51'  
Track history (hours):
 
Tides and Currents Weather Stations Pressure Air Temp Water Temp Dewpoint Dewpoint Depression Visibility Wind Speed Wind Dir Waves Ship Positions

MSC Regina

Last reported at 2016-Jun-28 07:33 UTC. Time now 2016-Jun-28 08:01 UTC.
Position N 37°56' W 008°51'.

Length 259 m; draft 10.3 m.

Type: Ship (hazmat cat A). MMSI: 357331980.

Date/timePositionNaut miles runAvg speedWind from/ knotsBaromVisibWave heightAir tempDewpointWater temp
2016-Jun-28 07:33N 37°56' W 008°51'7 6.6
2016-Jun-28 06:33N 37°49' W 008°52'3417.2
2016-Jun-28 04:33N 37°18' W 009°11'1717.0
2016-Jun-28 03:33N 37°03' W 009°20'1514.9
2016-Jun-28 02:33N 36°48' W 009°14'1915.6
2016-Jun-28 01:22N 36°40' W 008°54'17217.5
2016-Jun-27 15:33N 36°00' W 005°26'22417.9
2016-Jun-27 03:04N 37°14' W 001°02'1219.0
2016-Jun-27 02:25N 37°23' W 000°50'1719.4
2016-Jun-27 01:33N 37°34' W 000°35'1918.9
2016-Jun-27 00:34N 37°49' W 000°21'1918.7
2016-Jun-26 23:33N 38°05' W 000°08'2018.9
2016-Jun-26 22:27N 38°22' E 000°06'7418.6
2016-Jun-26 18:27N 39°21' E 001°05'1718.4
2016-Jun-26 17:33N 39°31' E 001°22'1818.3
2016-Jun-26 16:33N 39°42' E 001°41'1818.4
2016-Jun-26 15:33N 39°54' E 001°59'1918.8
2016-Jun-26 14:33N 40°05' E 002°19'1918.5
2016-Jun-26 13:33N 40°16' E 002°38'1818.2
2016-Jun-26 12:33N 40°28' E 002°57'1918.7
2016-Jun-26 11:33N 40°39' E 003°16'1918.9
2016-Jun-26 10:33N 40°51' E 003°36'17018.9
2016-Jun-26 01:33N 42°34' E 006°36'2518.4
2016-Jun-26 00:12N 42°49' E 007°03'1218.7
2016-Jun-25 23:33N 42°57' E 007°16'1919.1
2016-Jun-25 22:33N 43°11' E 007°32'1919.1
2016-Jun-25 21:33N 43°27' E 007°48'1919.4
2016-Jun-25 20:33N 43°43' E 008°03'2519.7
2016-Jun-25 19:17N 44°03' E 008°23'1519.9
2016-Jun-25 18:33N 44°15' E 008°35'1311.8
2016-Jun-25 17:26N 44°25' E 008°47'0 0.0
2016-Jun-25 16:32N 44°25' E 008°47'0 0.0
2016-Jun-25 15:32N 44°25' E 008°47'0 0.0
2016-Jun-25 14:32N 44°25' E 008°47'0 0.0
2016-Jun-25 13:32N 44°25' E 008°47'0 0.0
2016-Jun-25 12:32N 44°25' E 008°47'0 0.0
2016-Jun-25 11:32N 44°25' E 008°47'0 0.0
2016-Jun-25 10:32N 44°25' E 008°47'0 0.0
2016-Jun-25 09:32N 44°25' E 008°47'0 0.0
2016-Jun-25 08:32N 44°25' E 008°47'0 0.0
2016-Jun-25 07:32N 44°25' E 008°47'0 0.0
2016-Jun-25 06:32N 44°25' E 008°47'2 2.2
2016-Jun-25 05:33N 44°24' E 008°45'2 2.3
2016-Jun-25 04:33N 44°22' E 008°43'8 8.4
2016-Jun-25 03:33N 44°15' E 008°50'9 8.8
2016-Jun-25 02:33N 44°08' E 008°58'9 8.7
2016-Jun-25 01:33N 44°02' E 009°06'9 8.9
2016-Jun-25 00:33N 43°56' E 009°15'9 8.9
2016-Jun-24 23:33N 43°50' E 009°24'9 8.7
2016-Jun-24 22:33N 43°43' E 009°32'9 8.6
2016-Jun-24 21:33N 43°37' E 009°40'9 8.9
2016-Jun-24 20:33N 43°31' E 009°50'9 8.6
2016-Jun-24 19:33N 43°30' E 010°02'9 8.7
2016-Jun-24 18:33N 43°31' E 010°14'5 4.5
2016-Jun-24 17:28N 43°35' E 010°18'0 0.0
2016-Jun-24 16:31N 43°35' E 010°18'0 0.0
2016-Jun-24 15:30N 43°35' E 010°18'0 0.0
2016-Jun-24 14:34N 43°35' E 010°18'0 0.0
2016-Jun-24 13:31N 43°35' E 010°18'0 0.0
2016-Jun-24 12:34N 43°35' E 010°18'0 0.0
2016-Jun-24 11:30N 43°35' E 010°18'0 0.0
2016-Jun-24 10:34N 43°35' E 010°18'0 0.0
2016-Jun-24 09:33N 43°35' E 010°18'0 0.0
2016-Jun-24 08:28N 43°35' E 010°18'0 0.0
2016-Jun-24 07:33N 43°35' E 010°18'2 0.7
2016-Jun-24 04:33N 43°33' E 010°17'8 8.0
2016-Jun-24 03:33N 43°27' E 010°10'1514.7
2016-Jun-24 02:34N 43°17' E 009°55'1616.5
2016-Jun-24 01:34N 43°05' E 009°39'1515.2
2016-Jun-24 00:33N 42°50' E 009°42'1716.0
2016-Jun-23 23:27N 42°33' E 009°49'1515.8
2016-Jun-23 22:29N 42°19' E 009°55'1515.9
2016-Jun-23 21:33N 42°09' E 010°09'5617.1
2016-Jun-23 18:17N 41°31' E 011°05'17617.6
2016-Jun-23 08:16N 39°33' E 013°58'6018.6
2016-Jun-23 05:03N 38°54' E 014°56'918.4
2016-Jun-23 04:33N 38°48' E 015°05'1918.4
2016-Jun-23 03:33N 38°38' E 015°25'1918.8
2016-Jun-23 02:33N 38°29' E 015°46'7 6.3
2016-Jun-23 01:31N 38°27' E 015°54'0 0.0
2016-Jun-23 00:31N 38°27' E 015°54'0 0.0
2016-Jun-22 23:31N 38°27' E 015°54'0 0.0
2016-Jun-22 22:34N 38°27' E 015°54'0 0.0
2016-Jun-22 21:34N 38°27' E 015°54'0 0.0
2016-Jun-22 20:31N 38°27' E 015°54'0 0.0
2016-Jun-22 19:31N 38°27' E 015°54'0 0.0
2016-Jun-22 18:30N 38°27' E 015°54'0 0.0
2016-Jun-22 17:31N 38°27' E 015°54'0 0.0
2016-Jun-22 16:19N 38°27' E 015°54'0 0.0
2016-Jun-22 15:31N 38°27' E 015°54'0 0.0
2016-Jun-22 14:31N 38°27' E 015°54'0 0.0
2016-Jun-22 13:31N 38°27' E 015°54'0 0.0
2016-Jun-22 12:33N 38°27' E 015°54'0 0.0
2016-Jun-22 11:31N 38°27' E 015°54'0 0.0
2016-Jun-22 10:25N 38°27' E 015°54'0 0.0
2016-Jun-22 09:30N 38°27' E 015°54'0 0.0
2016-Jun-22 08:33N 38°27' E 015°54'0 0.0
2016-Jun-22 07:34N 38°27' E 015°54'0 0.0
2016-Jun-22 06:33N 38°27' E 015°54'0 0.0
2016-Jun-22 05:34N 38°27' E 015°54'0 0.0
2016-Jun-22 04:33N 38°27' E 015°54'0 0.0
2016-Jun-22 03:33N 38°27' E 015°54'0 0.0
2016-Jun-22 02:33N 38°27' E 015°54'0 0.0
2016-Jun-22 01:33N 38°27' E 015°54'0 0.0
2016-Jun-22 00:28N 38°27' E 015°54'0 0.0
2016-Jun-21 23:27N 38°27' E 015°54'0 0.0
2016-Jun-21 22:34N 38°27' E 015°54'0 0.0
2016-Jun-21 21:33N 38°27' E 015°54'7 7.1
2016-Jun-21 20:33N 38°26' E 015°45'1717.0
2016-Jun-21 19:33N 38°21' E 015°25'1717.4
2016-Jun-21 18:33N 38°17' E 015°03'1717.0
2016-Jun-21 17:33N 38°17' E 014°42'2016.6
2016-Jun-21 16:22N 38°17' E 014°17'1816.3
2016-Jun-21 15:16N 38°17' E 013°54'1115.5
2016-Jun-21 14:33N 38°18' E 013°39'1515.5
2016-Jun-21 13:33N 38°18' E 013°20'1515.2
2016-Jun-21 12:33N 38°17' E 013°00'2015.6
2016-Jun-21 11:16N 38°14' E 012°35'60315.6
2016-Jun-19 20:33N 36°45' E 000°04'1716.4
2016-Jun-19 19:32N 36°42' W 000°17'1616.5
2016-Jun-19 18:33N 36°38' W 000°36'1615.8
2016-Jun-19 17:33N 36°35' W 000°55'1716.0
2016-Jun-19 16:31N 36°31' W 001°16'1616.3
2016-Jun-19 15:33N 36°28' W 001°35'3215.9
2016-Jun-19 13:32N 36°21' W 002°14'1915.3
2016-Jun-19 12:16N 36°18' W 002°37'12715.9
2016-Jun-19 04:19N 36°00' W 005°13'1316.8
2016-Jun-19 03:33N 35°57' W 005°28'1615.8
2016-Jun-19 02:33N 35°54' W 005°47'12915.7
2016-Jun-18 18:20N 36°19' W 008°24'4815.7
2016-Jun-18 15:16N 36°32' W 009°22'5313.2
2016-Jun-18 11:15N 37°25' W 009°16'1116.0
2016-Jun-18 10:33N 37°34' W 009°08'1615.7
2016-Jun-18 09:33N 37°46' W 008°56'1010.6
2016-Jun-18 08:34N 37°56' W 008°51'  

Dump ship's entire track history